sensor_id;sensor_type;location;lat;lon;timestamp;pressure;altitude;pressure_sealevel;temperature;humidity
55418;BME280;41287;47.554;7.844;2023-05-03T00:00:36;98620.34;;;18.70;53.14
55418;BME280;41287;47.554;7.844;2023-05-03T00:03:03;98621.13;;;18.70;53.15
55418;BME280;41287;47.554;7.844;2023-05-03T00:05:30;98622.75;;;18.71;53.09
55418;BME280;41287;47.554;7.844;2023-05-03T00:07:56;98622.28;;;18.69;53.28
55418;BME280;41287;47.554;7.844;2023-05-03T00:10:22;98623.06;;;18.70;53.08
55418;BME280;41287;47.554;7.844;2023-05-03T00:12:47;98620.34;;;18.70;53.20
55418;BME280;41287;47.554;7.844;2023-05-03T00:15:12;98623.84;;;18.70;53.19
55418;BME280;41287;47.554;7.844;2023-05-03T00:17:38;98621.94;;;18.71;53.30
55418;BME280;41287;47.554;7.844;2023-05-03T00:20:04;98614.91;;;18.70;53.14
55418;BME280;41287;47.554;7.844;2023-05-03T00:22:29;98622.28;;;18.69;53.29
55418;BME280;41287;47.554;7.844;2023-05-03T00:24:55;98618.41;;;18.70;53.16
55418;BME280;41287;47.554;7.844;2023-05-03T00:27:21;98610.63;;;18.69;53.14
55418;BME280;41287;47.554;7.844;2023-05-03T00:29:46;98621.13;;;18.70;53.14
55418;BME280;41287;47.554;7.844;2023-05-03T00:32:11;98617.63;;;18.70;53.12
55418;BME280;41287;47.554;7.844;2023-05-03T00:34:39;98606.75;;;18.70;53.29
55418;BME280;41287;47.554;7.844;2023-05-03T00:37:04;98614.13;;;18.69;53.15
55418;BME280;41287;47.554;7.844;2023-05-03T00:39:30;98607.09;;;18.68;53.18
55418;BME280;41287;47.554;7.844;2023-05-03T00:41:56;98610.63;;;18.69;53.20
55418;BME280;41287;47.554;7.844;2023-05-03T00:44:22;98604.06;;;18.70;53.31
55418;BME280;41287;47.554;7.844;2023-05-03T00:46:49;98606.00;;;18.69;53.17
55418;BME280;41287;47.554;7.844;2023-05-03T00:49:17;98614.91;;;18.70;53.28
55418;BME280;41287;47.554;7.844;2023-05-03T00:51:42;98614.91;;;18.70;53.28
55418;BME280;41287;47.554;7.844;2023-05-03T00:54:08;98619.56;;;18.69;53.24
55418;BME280;41287;47.554;7.844;2023-05-03T00:56:37;98609.47;;;18.70;53.31
55418;BME280;41287;47.554;7.844;2023-05-03T00:59:04;98601.34;;;18.70;53.27
55418;BME280;41287;47.554;7.844;2023-05-03T01:01:30;98613.34;;;18.69;53.20
55418;BME280;41287;47.554;7.844;2023-05-03T01:03:57;98607.91;;;18.69;53.23
55418;BME280;41287;47.554;7.844;2023-05-03T01:06:31;98606.75;;;18.70;53.30
55418;BME280;41287;47.554;7.844;2023-05-03T01:09:03;98613.34;;;18.69;53.30
55418;BME280;41287;47.554;7.844;2023-05-03T01:11:59;98615.56;;;18.67;53.22
55418;BME280;41287;47.554;7.844;2023-05-03T01:14:42;98611.75;;;18.68;53.17
55418;BME280;41287;47.554;7.844;2023-05-03T01:17:13;98609.81;;;18.68;53.23
55418;BME280;41287;47.554;7.844;2023-05-03T01:19:52;98605.50;;;18.67;53.17
55418;BME280;41287;47.554;7.844;2023-05-03T01:22:32;98602.78;;;18.67;53.36
55418;BME280;41287;47.554;7.844;2023-05-03T01:25:07;98600.88;;;18.68;53.22
55418;BME280;41287;47.554;7.844;2023-05-03T01:27:34;98600.88;;;18.68;53.32
55418;BME280;41287;47.554;7.844;2023-05-03T01:30:01;98596.56;;;18.67;53.30
55418;BME280;41287;47.554;7.844;2023-05-03T01:32:43;98594.66;;;18.67;53.40
55418;BME280;41287;47.554;7.844;2023-05-03T01:35:16;98590.81;;;18.68;53.20
55418;BME280;41287;47.554;7.844;2023-05-03T01:37:47;98594.66;;;18.67;53.18
55418;BME280;41287;47.554;7.844;2023-05-03T01:40:13;98597.38;;;18.67;53.29
55418;BME280;41287;47.554;7.844;2023-05-03T01:42:41;98596.25;;;18.68;53.44
55418;BME280;41287;47.554;7.844;2023-05-03T01:45:07;98600.88;;;18.68;53.33
55418;BME280;41287;47.554;7.844;2023-05-03T01:47:32;98598.16;;;18.68;53.43
55418;BME280;41287;47.554;7.844;2023-05-03T01:50:00;98594.66;;;18.67;53.31
55418;BME280;41287;47.554;7.844;2023-05-03T01:52:25;98597.06;;;18.69;53.35
55418;BME280;41287;47.554;7.844;2023-05-03T01:54:51;98600.88;;;18.68;53.34
55418;BME280;41287;47.554;7.844;2023-05-03T01:57:16;98603.59;;;18.68;53.34
55418;BME280;41287;47.554;7.844;2023-05-03T01:59:42;98608.22;;;18.67;53.32
55418;BME280;41287;47.554;7.844;2023-05-03T02:02:07;98602.78;;;18.67;53.22
55418;BME280;41287;47.554;7.844;2023-05-03T02:04:32;98597.38;;;18.67;53.31
55418;BME280;41287;47.554;7.844;2023-05-03T02:06:58;98597.38;;;18.67;53.40
55418;BME280;41287;47.554;7.844;2023-05-03T02:09:25;98588.44;;;18.67;53.27
55418;BME280;41287;47.554;7.844;2023-05-03T02:11:51;98579.47;;;18.66;53.33
55418;BME280;41287;47.554;7.844;2023-05-03T02:14:16;98583.00;;;18.67;53.45
55418;BME280;41287;47.554;7.844;2023-05-03T02:16:42;98590.34;;;18.66;53.26
55418;BME280;41287;47.554;7.844;2023-05-03T02:19:07;98591.94;;;18.67;53.27
55418;BME280;41287;47.554;7.844;2023-05-03T02:21:36;98586.50;;;18.67;53.30
55418;BME280;41287;47.554;7.844;2023-05-03T02:24:05;98583.00;;;18.67;53.26
55418;BME280;41287;47.554;7.844;2023-05-03T02:26:30;98587.31;;;18.68;53.30
55418;BME280;41287;47.554;7.844;2023-05-03T02:28:56;98578.69;;;18.66;53.34
55418;BME280;41287;47.554;7.844;2023-05-03T02:31:22;98584.91;;;18.66;53.18
55418;BME280;41287;47.554;7.844;2023-05-03T02:33:48;98587.63;;;18.66;53.37
55418;BME280;41287;47.554;7.844;2023-05-03T02:36:13;98583.78;;;18.67;53.41
55418;BME280;41287;47.554;7.844;2023-05-03T02:38:38;98585.72;;;18.67;53.38
55418;BME280;41287;47.554;7.844;2023-05-03T02:41:04;98581.41;;;18.66;53.44
55418;BME280;41287;47.554;7.844;2023-05-03T02:43:29;98579.47;;;18.66;53.32
55418;BME280;41287;47.554;7.844;2023-05-03T02:45:55;98581.41;;;18.66;53.25
55418;BME280;41287;47.554;7.844;2023-05-03T02:48:20;98586.03;;;18.65;53.31
55418;BME280;41287;47.554;7.844;2023-05-03T02:50:45;98579.47;;;18.66;53.42
55418;BME280;41287;47.554;7.844;2023-05-03T02:53:12;98587.94;;;18.65;53.27
55418;BME280;41287;47.554;7.844;2023-05-03T02:55:39;98582.19;;;18.66;53.40
55418;BME280;41287;47.554;7.844;2023-05-03T02:58:05;98579.00;;;18.64;53.40
55418;BME280;41287;47.554;7.844;2023-05-03T03:00:30;98578.69;;;18.66;53.41
55418;BME280;41287;47.554;7.844;2023-05-03T03:02:57;98573.25;;;18.66;53.32
55418;BME280;41287;47.554;7.844;2023-05-03T03:05:23;98570.53;;;18.66;53.38
55418;BME280;41287;47.554;7.844;2023-05-03T03:07:49;98575.16;;;18.65;53.37
55418;BME280;41287;47.554;7.844;2023-05-03T03:10:14;98590.03;;;18.68;53.47
55418;BME280;41287;47.554;7.844;2023-05-03T03:12:40;98578.69;;;18.66;53.26
55418;BME280;41287;47.554;7.844;2023-05-03T03:15:06;98577.56;;;18.67;53.31
55418;BME280;41287;47.554;7.844;2023-05-03T03:17:31;98581.41;;;18.66;53.41
55418;BME280;41287;47.554;7.844;2023-05-03T03:19:56;98577.06;;;18.65;53.34
55418;BME280;41287;47.554;7.844;2023-05-03T03:22:26;98573.25;;;18.66;53.30
55418;BME280;41287;47.554;7.844;2023-05-03T03:24:51;98575.97;;;18.66;53.31
55418;BME280;41287;47.554;7.844;2023-05-03T03:27:17;98575.16;;;18.65;53.49
55418;BME280;41287;47.554;7.844;2023-05-03T03:29:42;98577.06;;;18.65;53.32
55418;BME280;41287;47.554;7.844;2023-05-03T03:32:07;98579.78;;;18.65;53.44
55418;BME280;41287;47.554;7.844;2023-05-03T03:34:33;98575.16;;;18.65;53.49
55418;BME280;41287;47.554;7.844;2023-05-03T03:36:58;98574.38;;;18.65;53.46
55418;BME280;41287;47.554;7.844;2023-05-03T03:39:24;98571.66;;;18.65;53.31
55418;BME280;41287;47.554;7.844;2023-05-03T03:41:49;98582.50;;;18.65;53.41
55418;BME280;41287;47.554;7.844;2023-05-03T03:44:15;98573.56;;;18.64;53.31
55418;BME280;41287;47.554;7.844;2023-05-03T03:46:40;98571.66;;;18.65;53.38
55418;BME280;41287;47.554;7.844;2023-05-03T03:49:05;98579.00;;;18.64;53.42
55418;BME280;41287;47.554;7.844;2023-05-03T03:51:32;98579.78;;;18.65;53.43
55418;BME280;41287;47.554;7.844;2023-05-03T03:53:57;98589.84;;;18.64;53.49
55418;BME280;41287;47.554;7.844;2023-05-03T03:56:24;98583.63;;;18.64;53.34
55418;BME280;41287;47.554;7.844;2023-05-03T03:58:51;98596.41;;;18.63;53.32
55418;BME280;41287;47.554;7.844;2023-05-03T04:01:16;98599.09;;;18.63;53.51
55418;BME280;41287;47.554;7.844;2023-05-03T04:03:44;98595.63;;;18.63;53.38
55418;BME280;41287;47.554;7.844;2023-05-03T04:06:11;98606.13;;;18.64;53.54
55418;BME280;41287;47.554;7.844;2023-05-03T04:08:37;98608.84;;;18.64;53.51
55418;BME280;41287;47.554;7.844;2023-05-03T04:11:02;98610.75;;;18.64;53.39
55418;BME280;41287;47.554;7.844;2023-05-03T04:13:27;98603.41;;;18.64;53.40
55418;BME280;41287;47.554;7.844;2023-05-03T04:15:53;98617.34;;;18.63;53.54
55418;BME280;41287;47.554;7.844;2023-05-03T04:18:22;98616.19;;;18.64;53.49
55418;BME280;41287;47.554;7.844;2023-05-03T04:20:47;98615.41;;;18.63;53.41
55418;BME280;41287;47.554;7.844;2023-05-03T04:23:13;98613.81;;;18.62;53.45
55418;BME280;41287;47.554;7.844;2023-05-03T04:25:38;98623.53;;;18.63;53.42
55418;BME280;41287;47.554;7.844;2023-05-03T04:28:11;98621.63;;;18.64;53.56
55418;BME280;41287;47.554;7.844;2023-05-03T04:30:39;98628.97;;;18.63;53.58
55418;BME280;41287;47.554;7.844;2023-05-03T04:33:06;98620.81;;;18.63;53.51
55418;BME280;41287;47.554;7.844;2023-05-03T04:35:31;98630.91;;;18.63;53.45
55418;BME280;41287;47.554;7.844;2023-05-03T04:37:57;98635.53;;;18.62;53.38
55418;BME280;41287;47.554;7.844;2023-05-03T04:40:22;98630.09;;;18.62;53.42
55418;BME280;41287;47.554;7.844;2023-05-03T04:42:47;98626.59;;;18.62;53.44
55418;BME280;41287;47.554;7.844;2023-05-03T04:45:14;98634.75;;;18.62;53.59
55418;BME280;41287;47.554;7.844;2023-05-03T04:47:40;98640.97;;;18.62;53.43
55418;BME280;41287;47.554;7.844;2023-05-03T04:50:06;98633.94;;;18.61;53.52
55418;BME280;41287;47.554;7.844;2023-05-03T04:52:32;98631.22;;;18.61;53.36
55418;BME280;41287;47.554;7.844;2023-05-03T04:54:58;98641.75;;;18.63;53.58
55418;BME280;41287;47.554;7.844;2023-05-03T04:57:23;98642.09;;;18.61;53.45
55418;BME280;41287;47.554;7.844;2023-05-03T04:59:48;98635.53;;;18.62;53.40
55418;BME280;41287;47.554;7.844;2023-05-03T05:02:14;98640.97;;;18.62;53.36
55418;BME280;41287;47.554;7.844;2023-05-03T05:04:39;98632.03;;;18.62;53.58
55418;BME280;41287;47.554;7.844;2023-05-03T05:07:05;98638.25;;;18.62;53.58
55418;BME280;41287;47.554;7.844;2023-05-03T05:09:32;98639.38;;;18.61;53.43
55418;BME280;41287;47.554;7.844;2023-05-03T05:11:57;98648.31;;;18.62;53.65
55418;BME280;41287;47.554;7.844;2023-05-03T05:14:25;98646.72;;;18.61;53.37
55418;BME280;41287;47.554;7.844;2023-05-03T05:16:51;98653.72;;;18.62;53.62
55418;BME280;41287;47.554;7.844;2023-05-03T05:19:17;98658.38;;;18.61;53.55
55418;BME280;41287;47.554;7.844;2023-05-03T05:21:44;98646.72;;;18.61;53.53
55418;BME280;41287;47.554;7.844;2023-05-03T05:24:09;98650.22;;;18.61;53.51
55418;BME280;41287;47.554;7.844;2023-05-03T05:26:35;98646.72;;;18.61;53.65
55418;BME280;41287;47.554;7.844;2023-05-03T05:29:00;98649.41;;;18.61;53.58
55418;BME280;41287;47.554;7.844;2023-05-03T05:31:26;98652.44;;;18.59;53.66
55418;BME280;41287;47.554;7.844;2023-05-03T05:33:53;98649.41;;;18.61;53.63
55418;BME280;41287;47.554;7.844;2023-05-03T05:36:18;98654.06;;;18.60;53.49
55418;BME280;41287;47.554;7.844;2023-05-03T05:38:44;98656.75;;;18.60;53.50
55418;BME280;41287;47.554;7.844;2023-05-03T05:41:10;98656.75;;;18.60;53.53
55418;BME280;41287;47.554;7.844;2023-05-03T05:43:35;98656.75;;;18.60;53.64
55418;BME280;41287;47.554;7.844;2023-05-03T05:46:01;98666.50;;;18.61;53.66
55418;BME280;41287;47.554;7.844;2023-05-03T05:48:26;98661.38;;;18.60;53.57
55418;BME280;41287;47.554;7.844;2023-05-03T05:50:52;98660.59;;;18.59;53.48
55418;BME280;41287;47.554;7.844;2023-05-03T05:53:19;98658.69;;;18.60;53.47
55418;BME280;41287;47.554;7.844;2023-05-03T05:55:44;98659.47;;;18.60;53.68
55418;BME280;41287;47.554;7.844;2023-05-03T05:58:09;98663.31;;;18.59;53.75
55418;BME280;41287;47.554;7.844;2023-05-03T06:00:37;98656.75;;;18.60;53.46
55418;BME280;41287;47.554;7.844;2023-05-03T06:03:02;98655.16;;;18.59;53.60
55418;BME280;41287;47.554;7.844;2023-05-03T06:05:27;98657.06;;;18.59;53.58
55418;BME280;41287;47.554;7.844;2023-05-03T06:07:53;98661.38;;;18.60;53.90
55418;BME280;41287;47.554;7.844;2023-05-03T06:10:18;98658.69;;;18.60;53.60
55418;BME280;41287;47.554;7.844;2023-05-03T06:12:43;98653.56;;;18.58;53.47
55418;BME280;41287;47.554;7.844;2023-05-03T06:15:09;98655.47;;;18.58;53.63
55418;BME280;41287;47.554;7.844;2023-05-03T06:17:34;98641.59;;;18.59;53.68
55418;BME280;41287;47.554;7.844;2023-05-03T06:20:00;98646.22;;;18.59;53.57
55418;BME280;41287;47.554;7.844;2023-05-03T06:22:25;98648.13;;;18.58;53.65
55418;BME280;41287;47.554;7.844;2023-05-03T06:24:51;98644.63;;;18.58;53.80
55418;BME280;41287;47.554;7.844;2023-05-03T06:27:17;98640.78;;;18.59;53.73
55418;BME280;41287;47.554;7.844;2023-05-03T06:29:45;98648.94;;;18.59;53.88
55418;BME280;41287;47.554;7.844;2023-05-03T06:32:14;98648.94;;;18.59;53.76
55418;BME280;41287;47.554;7.844;2023-05-03T06:34:39;98649.72;;;18.59;53.68
55418;BME280;41287;47.554;7.844;2023-05-03T06:37:04;98647.34;;;18.58;53.47
55418;BME280;41287;47.554;7.844;2023-05-03T06:39:32;98649.72;;;18.59;53.65
55418;BME280;41287;47.554;7.844;2023-05-03T06:41:57;98645.41;;;18.58;53.61
55418;BME280;41287;47.554;7.844;2023-05-03T06:44:22;98641.91;;;18.58;53.59
55418;BME280;41287;47.554;7.844;2023-05-03T06:46:48;98641.91;;;18.58;53.54
55418;BME280;41287;47.554;7.844;2023-05-03T06:49:13;98638.88;;;18.59;53.36
55418;BME280;41287;47.554;7.844;2023-05-03T06:51:39;98638.38;;;18.57;53.71
55418;BME280;41287;47.554;7.844;2023-05-03T06:54:04;98640.00;;;18.58;53.72
55418;BME280;41287;47.554;7.844;2023-05-03T06:56:34;98633.75;;;18.58;53.63
55418;BME280;41287;47.554;7.844;2023-05-03T06:59:01;98631.06;;;18.58;53.63
55418;BME280;41287;47.554;7.844;2023-05-03T07:01:27;98636.47;;;18.58;53.58
55418;BME280;41287;47.554;7.844;2023-05-03T07:03:53;98624.03;;;18.57;53.70
55418;BME280;41287;47.554;7.844;2023-05-03T07:06:18;98622.09;;;18.57;53.74
55418;BME280;41287;47.554;7.844;2023-05-03T07:08:44;98622.91;;;18.58;53.52
55418;BME280;41287;47.554;7.844;2023-05-03T07:11:09;98609.34;;;18.58;53.71
55418;BME280;41287;47.554;7.844;2023-05-03T07:13:35;98611.25;;;18.57;53.77
55418;BME280;41287;47.554;7.844;2023-05-03T07:16:00;98603.44;;;18.56;53.69
55418;BME280;41287;47.554;7.844;2023-05-03T07:18:26;98596.88;;;18.57;53.53
55418;BME280;41287;47.554;7.844;2023-05-03T07:20:51;98591.44;;;18.57;53.67
55418;BME280;41287;47.554;7.844;2023-05-03T07:23:16;98582.50;;;18.56;53.69
55418;BME280;41287;47.554;7.844;2023-05-03T07:25:44;98582.50;;;18.56;53.57
55418;BME280;41287;47.554;7.844;2023-05-03T07:28:12;98582.50;;;18.56;53.72
55418;BME280;41287;47.554;7.844;2023-05-03T07:30:37;98574.38;;;18.56;53.57
55418;BME280;41287;47.554;7.844;2023-05-03T07:33:03;98567.34;;;18.55;53.56
55418;BME280;41287;47.554;7.844;2023-05-03T07:35:28;98563.50;;;18.56;53.83
55418;BME280;41287;47.554;7.844;2023-05-03T07:37:56;98563.50;;;18.56;53.77
55418;BME280;41287;47.554;7.844;2023-05-03T07:40:22;98559.19;;;18.55;53.64
55418;BME280;41287;47.554;7.844;2023-05-03T07:42:47;98551.06;;;18.55;53.71
55418;BME280;41287;47.554;7.844;2023-05-03T07:45:12;98547.53;;;18.54;53.79
55418;BME280;41287;47.554;7.844;2023-05-03T07:47:37;98542.91;;;18.55;53.71
55418;BME280;41287;47.554;7.844;2023-05-03T07:50:06;98542.13;;;18.54;53.57
55418;BME280;41287;47.554;7.844;2023-05-03T07:52:38;98544.84;;;18.54;53.88
55418;BME280;41287;47.554;7.844;2023-05-03T07:55:05;98540.19;;;18.55;53.76
55418;BME280;41287;47.554;7.844;2023-05-03T07:57:31;98536.69;;;18.54;53.84
55418;BME280;41287;47.554;7.844;2023-05-03T07:59:56;98542.13;;;18.54;53.72
55418;BME280;41287;47.554;7.844;2023-05-03T08:02:22;98549.19;;;18.56;53.64
55418;BME280;41287;47.554;7.844;2023-05-03T08:04:47;98539.72;;;18.53;53.65
55418;BME280;41287;47.554;7.844;2023-05-03T08:07:13;98537.50;;;18.55;53.65
55418;BME280;41287;47.554;7.844;2023-05-03T08:09:39;98533.97;;;18.54;53.72
55418;BME280;41287;47.554;7.844;2023-05-03T08:12:05;98540.19;;;18.55;53.60
55418;BME280;41287;47.554;7.844;2023-05-03T08:14:30;98533.97;;;18.54;53.69
55418;BME280;41287;47.554;7.844;2023-05-03T08:16:55;98534.78;;;18.55;53.62
55418;BME280;41287;47.554;7.844;2023-05-03T08:19:21;98534.28;;;18.53;53.84
55418;BME280;41287;47.554;7.844;2023-05-03T08:21:46;98529.66;;;18.53;53.61
55418;BME280;41287;47.554;7.844;2023-05-03T08:24:12;98536.19;;;18.52;53.66
55418;BME280;41287;47.554;7.844;2023-05-03T08:26:40;98529.66;;;18.53;53.64
55418;BME280;41287;47.554;7.844;2023-05-03T08:29:06;98522.63;;;18.52;53.73
55418;BME280;41287;47.554;7.844;2023-05-03T08:31:31;98522.63;;;18.52;53.74
55418;BME280;41287;47.554;7.844;2023-05-03T08:33:57;98517.22;;;18.52;53.84
55418;BME280;41287;47.554;7.844;2023-05-03T08:36:22;98510.97;;;18.52;53.66
55418;BME280;41287;47.554;7.844;2023-05-03T08:38:48;98509.88;;;18.53;53.84
55418;BME280;41287;47.554;7.844;2023-05-03T08:41:21;98516.41;;;18.52;53.75
55418;BME280;41287;47.554;7.844;2023-05-03T08:43:53;98518.81;;;18.53;53.77
55418;BME280;41287;47.554;7.844;2023-05-03T08:46:20;98510.97;;;18.52;53.63
55418;BME280;41287;47.554;7.844;2023-05-03T08:48:50;98503.63;;;18.52;53.86
55418;BME280;41287;47.554;7.844;2023-05-03T08:51:16;98500.13;;;18.52;53.85
55418;BME280;41287;47.554;7.844;2023-05-03T08:53:42;98506.34;;;18.52;53.77
55418;BME280;41287;47.554;7.844;2023-05-03T08:56:10;98507.16;;;18.53;53.93
55418;BME280;41287;47.554;7.844;2023-05-03T08:58:37;98507.47;;;18.51;53.90
55418;BME280;41287;47.554;7.844;2023-05-03T09:01:06;98503.63;;;18.52;53.64
55418;BME280;41287;47.554;7.844;2023-05-03T09:03:32;98504.44;;;18.53;53.83
55418;BME280;41287;47.554;7.844;2023-05-03T09:05:58;98508.28;;;18.52;53.74
55418;BME280;41287;47.554;7.844;2023-05-03T09:08:29;98511.78;;;18.52;53.84
55418;BME280;41287;47.554;7.844;2023-05-03T09:10:56;98512.91;;;18.51;53.80
55418;BME280;41287;47.554;7.844;2023-05-03T09:13:29;98521.03;;;18.51;53.90
55418;BME280;41287;47.554;7.844;2023-05-03T09:15:55;98516.41;;;18.52;53.93
55418;BME280;41287;47.554;7.844;2023-05-03T09:18:22;98500.13;;;18.52;53.78
55418;BME280;41287;47.554;7.844;2023-05-03T09:20:48;98516.41;;;18.52;53.67
55418;BME280;41287;47.554;7.844;2023-05-03T09:25:53;98507.47;;;18.51;53.86
55418;BME280;41287;47.554;7.844;2023-05-03T09:28:19;98510.97;;;18.52;53.89
55418;BME280;41287;47.554;7.844;2023-05-03T09:30:47;98497.41;;;18.52;53.97
55418;BME280;41287;47.554;7.844;2023-05-03T09:33:15;98500.44;;;18.50;53.80
55418;BME280;41287;47.554;7.844;2023-05-03T09:35:59;98493.41;;;18.49;53.89
55418;BME280;41287;47.554;7.844;2023-05-03T09:38:34;98500.13;;;18.52;53.85
55418;BME280;41287;47.554;7.844;2023-05-03T09:41:05;98503.94;;;18.51;53.87
55418;BME280;41287;47.554;7.844;2023-05-03T09:43:31;98505.56;;;18.52;53.97
55418;BME280;41287;47.554;7.844;2023-05-03T09:46:10;98507.78;;;18.50;54.11
55418;BME280;41287;47.554;7.844;2023-05-03T09:48:36;98501.25;;;18.51;53.88
55418;BME280;41287;47.554;7.844;2023-05-03T09:51:03;98504.75;;;18.51;54.04
55418;BME280;41287;47.554;7.844;2023-05-03T09:53:30;98509.38;;;18.51;54.01
55418;BME280;41287;47.554;7.844;2023-05-03T09:55:56;98509.38;;;18.51;53.97
55418;BME280;41287;47.554;7.844;2023-05-03T09:58:23;98502.03;;;18.51;53.93
55418;BME280;41287;47.554;7.844;2023-05-03T10:00:50;98505.88;;;18.50;54.08
55418;BME280;41287;47.554;7.844;2023-05-03T10:03:27;98506.97;;;18.49;53.89
55418;BME280;41287;47.554;7.844;2023-05-03T10:05:57;98505.88;;;18.50;53.89
55418;BME280;41287;47.554;7.844;2023-05-03T10:08:42;98499.19;;;18.48;53.95
55418;BME280;41287;47.554;7.844;2023-05-03T10:11:12;98505.06;;;18.50;53.98
55418;BME280;41287;47.554;7.844;2023-05-03T10:13:43;98493.41;;;18.49;54.06
55418;BME280;41287;47.554;7.844;2023-05-03T10:16:15;98491.84;;;18.48;53.98
55418;BME280;41287;47.554;7.844;2023-05-03T10:18:52;98500.00;;;18.48;53.98
55418;BME280;41287;47.554;7.844;2023-05-03T10:24:25;98489.94;;;18.49;53.90
55418;BME280;41287;47.554;7.844;2023-05-03T10:26:54;98492.66;;;18.49;53.95
55418;BME280;41287;47.554;7.844;2023-05-03T10:32:05;98492.66;;;18.49;54.05
55418;BME280;41287;47.554;7.844;2023-05-03T10:35:16;98492.97;;;18.47;53.95
55418;BME280;41287;47.554;7.844;2023-05-03T10:37:42;98489.13;;;18.48;53.99
55418;BME280;41287;47.554;7.844;2023-05-03T10:40:13;98480.19;;;18.48;53.88
55418;BME280;41287;47.554;7.844;2023-05-03T10:42:45;98473.97;;;18.47;53.80
55418;BME280;41287;47.554;7.844;2023-05-03T10:45:27;98475.09;;;18.46;54.17
55418;BME280;41287;47.554;7.844;2023-05-03T10:50:39;98467.25;;;18.45;54.01
55418;BME280;41287;47.554;7.844;2023-05-03T10:53:05;98470.94;;;18.49;53.83
55418;BME280;41287;47.554;7.844;2023-05-03T10:55:31;98465.50;;;18.49;53.92
55418;BME280;41287;47.554;7.844;2023-05-03T10:57:59;98463.13;;;18.47;53.83
55418;BME280;41287;47.554;7.844;2023-05-03T11:00:37;98463.44;;;18.46;54.06
55418;BME280;41287;47.554;7.844;2023-05-03T11:05:48;98454.19;;;18.47;54.06
55418;BME280;41287;47.554;7.844;2023-05-03T11:08:15;98448.75;;;18.47;54.20
55418;BME280;41287;47.554;7.844;2023-05-03T11:10:43;98451.47;;;18.47;54.15
55418;BME280;41287;47.554;7.844;2023-05-03T11:13:08;98446.84;;;18.47;54.00
55418;BME280;41287;47.554;7.844;2023-05-03T11:15:33;98448.75;;;18.47;53.99
55418;BME280;41287;47.554;7.844;2023-05-03T11:17:59;98458.81;;;18.46;54.04
55418;BME280;41287;47.554;7.844;2023-05-03T11:20:27;98435.97;;;18.47;53.96
55418;BME280;41287;47.554;7.844;2023-05-03T11:22:53;98446.03;;;18.47;54.04
55418;BME280;41287;47.554;7.844;2023-05-03T11:25:20;98438.69;;;18.47;53.93
55418;BME280;41287;47.554;7.844;2023-05-03T11:27:45;98434.38;;;18.46;54.12
55418;BME280;41287;47.554;7.844;2023-05-03T11:30:15;98427.03;;;18.47;54.13
55418;BME280;41287;47.554;7.844;2023-05-03T11:32:42;98437.91;;;18.47;53.95
55418;BME280;41287;47.554;7.844;2023-05-03T11:35:08;98432.47;;;18.47;53.96
55418;BME280;41287;47.554;7.844;2023-05-03T11:37:33;98437.91;;;18.47;54.05
55418;BME280;41287;47.554;7.844;2023-05-03T11:39:59;98428.97;;;18.46;54.01
55418;BME280;41287;47.554;7.844;2023-05-03T11:42:25;98421.63;;;18.47;54.12
55418;BME280;41287;47.554;7.844;2023-05-03T11:44:52;98427.03;;;18.47;54.13
55418;BME280;41287;47.554;7.844;2023-05-03T11:47:18;98428.16;;;18.46;53.94
55418;BME280;41287;47.554;7.844;2023-05-03T11:49:53;98421.94;;;18.45;54.10
55418;BME280;41287;47.554;7.844;2023-05-03T11:52:24;98427.03;;;18.47;53.97
55418;BME280;41287;47.554;7.844;2023-05-03T11:54:50;98425.13;;;18.47;54.08
55418;BME280;41287;47.554;7.844;2023-05-03T11:57:15;98424.31;;;18.47;53.92
55418;BME280;41287;47.554;7.844;2023-05-03T11:59:41;98425.94;;;18.48;54.10
55418;BME280;41287;47.554;7.844;2023-05-03T12:02:11;98415.38;;;18.46;54.09
55418;BME280;41287;47.554;7.844;2023-05-03T12:04:37;98425.13;;;18.47;54.05
55418;BME280;41287;47.554;7.844;2023-05-03T12:07:05;98427.03;;;18.47;54.25
55418;BME280;41287;47.554;7.844;2023-05-03T12:09:31;98424.31;;;18.47;54.19
55418;BME280;41287;47.554;7.844;2023-05-03T12:11:57;98421.63;;;18.47;54.11
55418;BME280;41287;47.554;7.844;2023-05-03T12:14:22;98417.00;;;18.47;54.22
55418;BME280;41287;47.554;7.844;2023-05-03T12:16:49;98421.63;;;18.47;54.10
55418;BME280;41287;47.554;7.844;2023-05-03T12:19:28;98413.00;;;18.45;54.19
55418;BME280;41287;47.554;7.844;2023-05-03T12:21:55;98418.91;;;18.47;54.10
55418;BME280;41287;47.554;7.844;2023-05-03T12:24:20;98409.97;;;18.46;54.16
55418;BME280;41287;47.554;7.844;2023-05-03T12:26:48;98399.09;;;18.46;54.01
55418;BME280;41287;47.554;7.844;2023-05-03T12:29:14;98402.94;;;18.45;54.31
55418;BME280;41287;47.554;7.844;2023-05-03T12:31:44;98395.59;;;18.46;54.16
55418;BME280;41287;47.554;7.844;2023-05-03T12:34:09;98401.03;;;18.46;54.32
55418;BME280;41287;47.554;7.844;2023-05-03T12:36:36;98395.59;;;18.46;54.19
55418;BME280;41287;47.554;7.844;2023-05-03T12:39:01;98397.19;;;18.47;54.17
55418;BME280;41287;47.554;7.844;2023-05-03T12:41:27;98401.81;;;18.46;54.13
55418;BME280;41287;47.554;7.844;2023-05-03T12:43:56;98397.19;;;18.47;54.33
55418;BME280;41287;47.554;7.844;2023-05-03T12:46:22;98395.28;;;18.47;54.32
55418;BME280;41287;47.554;7.844;2023-05-03T12:48:53;98392.88;;;18.46;54.09
55418;BME280;41287;47.554;7.844;2023-05-03T12:51:19;98384.75;;;18.46;54.09
55418;BME280;41287;47.554;7.844;2023-05-03T12:53:45;98390.97;;;18.46;54.19
55418;BME280;41287;47.554;7.844;2023-05-03T12:56:17;98389.06;;;18.47;54.14
55418;BME280;41287;47.554;7.844;2023-05-03T12:58:42;98382.81;;;18.46;54.16
55418;BME280;41287;47.554;7.844;2023-05-03T13:01:08;98382.03;;;18.46;54.31
55418;BME280;41287;47.554;7.844;2023-05-03T13:03:34;98382.81;;;18.46;54.30
55418;BME280;41287;47.554;7.844;2023-05-03T13:06:00;98374.69;;;18.46;54.35
55418;BME280;41287;47.554;7.844;2023-05-03T13:08:26;98388.25;;;18.46;54.36
55418;BME280;41287;47.554;7.844;2023-05-03T13:10:52;98371.97;;;18.46;54.31
55418;BME280;41287;47.554;7.844;2023-05-03T13:13:17;98363.03;;;18.46;54.21